Time;durP1;ratioP1;P1;durP2;ratioP2;P2;SDS_P1;SDS_P2;PMS_P1;PMS_P2;Temp;Humidity;BMP_temperature;BMP_pressure;BME280_temperature;BME280_humidity;BME280_pressure;Samples;Min_cycle;Max_cycle;Signal;HPM_P1;HPM_P2
2023/08/23 00:01:48;;;;;;;15.70;7.10;;;16.60;99.90;;;;;;5067773;28;20224;-86
2023/08/23 00:04:13;;;;;;;10.30;6.17;;;16.50;99.90;;;;;;5067385;28;20216;-85
2023/08/23 00:06:39;;;;;;;7.87;5.23;;;16.50;99.90;;;;;;5033177;28;20217;-86
2023/08/23 00:09:05;;;;;;;10.67;5.53;;;16.60;99.90;;;;;;5067906;28;20213;-86
2023/08/23 00:11:32;;;;;;;13.80;7.03;;;16.60;99.90;;;;;;5033060;28;20565;-85
2023/08/23 00:13:57;;;;;;;9.37;5.13;;;16.50;99.90;;;;;;5067577;28;20208;-87
2023/08/23 00:16:23;;;;;;;10.03;5.73;;;16.50;99.90;;;;;;5049975;28;20213;-86
2023/08/23 00:18:52;;;;;;;13.30;5.53;;;16.40;99.90;;;;;;5067363;28;20235;-87
2023/08/23 00:21:18;;;;;;;10.70;6.20;;;16.40;99.90;;;;;;5033373;28;20227;-87
2023/08/23 00:23:43;;;;;;;8.17;6.40;;;16.40;99.90;;;;;;5050507;28;20277;-87
2023/08/23 00:26:11;;;;;;;13.27;6.03;;;16.30;99.90;;;;;;5049725;28;20303;-85
2023/08/23 00:28:38;;;;;;;9.63;6.17;;;16.40;99.90;;;;;;5067397;28;20220;-87
2023/08/23 00:31:04;;;;;;;9.87;5.43;;;16.30;99.90;;;;;;5067418;28;20237;-87
2023/08/23 00:33:30;;;;;;;11.87;5.27;;;16.30;99.90;;;;;;5033265;28;20339;-83
2023/08/23 00:35:56;;;;;;;11.50;6.13;;;16.30;99.90;;;;;;5068135;28;20692;-86
2023/08/23 00:38:22;;;;;;;8.40;5.27;;;16.30;99.90;;;;;;5050114;28;20219;-85
2023/08/23 00:40:48;;;;;;;12.30;6.77;;;16.20;99.90;;;;;;5067490;28;20212;-87
2023/08/23 00:43:14;;;;;;;11.67;6.37;;;16.20;99.90;;;;;;5033236;28;20367;-87
2023/08/23 00:45:41;;;;;;;11.70;5.53;;;16.20;99.90;;;;;;5069270;28;20213;-85
2023/08/23 00:48:09;;;;;;;9.50;6.33;;;16.10;99.90;;;;;;5071680;28;20179;-86
2023/08/23 00:50:36;;;;;;;10.70;5.63;;;16.10;99.90;;;;;;5071244;28;20224;-87
2023/08/23 00:53:02;;;;;;;12.23;5.13;;;16.10;99.90;;;;;;5071974;28;20217;-85
2023/08/23 00:55:29;;;;;;;8.83;5.33;;;16.00;99.90;;;;;;5056785;28;20318;-86
2023/08/23 00:57:56;;;;;;;15.33;6.90;;;16.00;99.90;;;;;;5072169;28;20279;-85
2023/08/23 01:00:22;;;;;;;9.07;5.53;;;16.10;99.90;;;;;;5090757;28;20358;-85
2023/08/23 01:02:48;;;;;;;11.30;6.00;;;16.00;99.90;;;;;;5076157;28;20279;-88
2023/08/23 01:05:15;;;;;;;8.50;5.17;;;16.10;99.90;;;;;;5073949;28;20240;-86
2023/08/23 01:07:58;;;;;;;14.33;6.47;;;16.00;99.90;;;;;;5053379;28;20223;-85
2023/08/23 01:10:44;;;;;;;9.00;4.90;;;16.00;99.90;;;;;;5053066;28;20225;-87
2023/08/23 01:13:22;;;;;;;8.43;5.50;;;16.00;99.90;;;;;;5070277;28;20217;-86
2023/08/23 01:15:49;;;;;;;12.70;5.30;;;16.00;99.90;;;;;;5071074;28;20205;-89
2023/08/23 01:18:16;;;;;;;7.63;5.03;;;16.10;99.90;;;;;;5053488;28;20635;-88
2023/08/23 01:20:48;;;;;;;13.97;5.77;;;16.10;99.90;;;;;;5053798;28;20212;-89
2023/08/23 01:23:15;;;;;;;13.03;5.77;;;16.20;99.90;;;;;;5053190;28;20231;-87
2023/08/23 01:25:47;;;;;;;8.80;5.57;;;16.20;99.90;;;;;;5070633;28;20541;-87
2023/08/23 01:28:13;;;;;;;7.80;4.67;;;16.30;99.90;;;;;;5070474;28;20379;-86
2023/08/23 01:30:39;;;;;;;10.63;6.60;;;16.40;99.90;;;;;;5052874;28;20215;-89
2023/08/23 01:33:25;;;;;;;11.93;6.37;;;16.40;99.90;;;;;;5053515;28;20181;-88
2023/08/23 01:35:57;;;;;;;8.03;5.13;;;16.40;99.90;;;;;;5052558;28;20293;-86
2023/08/23 01:38:24;;;;;;;12.03;6.10;;;16.40;99.90;;;;;;5052397;28;20287;-88
2023/08/23 01:40:52;;;;;;;9.13;5.27;;;16.40;99.90;;;;;;5070373;28;20627;-86
2023/08/23 01:43:18;;;;;;;10.17;5.93;;;16.30;99.90;;;;;;5070112;28;20209;-86
2023/08/23 01:45:44;;;;;;;11.27;5.77;;;16.30;99.90;;;;;;5070486;28;20701;-89
2023/08/23 01:48:09;;;;;;;14.27;5.07;;;16.20;99.90;;;;;;5070678;28;20220;-86
2023/08/23 01:50:35;;;;;;;8.47;5.47;;;16.20;99.90;;;;;;5051848;28;20229;-87
2023/08/23 01:53:01;;;;;;;9.40;5.47;;;16.10;99.90;;;;;;5051906;28;20209;-87
2023/08/23 01:55:27;;;;;;;9.77;6.00;;;16.20;99.90;;;;;;5052094;28;20209;-89
2023/08/23 01:57:52;;;;;;;9.73;6.07;;;16.30;99.90;;;;;;5051114;28;20213;-86
2023/08/23 02:00:18;;;;;;;8.57;5.73;;;16.40;99.90;;;;;;5051388;28;20174;-88
2023/08/23 02:02:44;;;;;;;12.33;6.33;;;16.50;99.90;;;;;;5036159;28;20241;-89
2023/08/23 02:05:10;;;;;;;11.70;6.60;;;16.50;99.90;;;;;;5069500;28;20682;-89
2023/08/23 02:07:35;;;;;;;12.87;6.83;;;16.50;99.90;;;;;;5052053;28;20244;-85
2023/08/23 02:10:01;;;;;;;11.57;6.83;;;16.50;99.90;;;;;;5051377;28;20232;-87
2023/08/23 02:12:27;;;;;;;9.87;6.00;;;16.50;99.90;;;;;;5069721;28;20185;-86
2023/08/23 02:14:55;;;;;;;10.23;5.77;;;16.50;99.90;;;;;;5035840;28;20703;-87
2023/08/23 02:17:21;;;;;;;12.70;5.87;;;16.60;99.90;;;;;;5051736;28;20224;-87
2023/08/23 02:19:47;;;;;;;15.93;7.40;;;16.60;99.90;;;;;;5051628;28;20809;-87
2023/08/23 02:22:12;;;;;;;10.40;6.73;;;16.70;99.90;;;;;;5034888;28;20224;-87
2023/08/23 02:24:38;;;;;;;8.33;5.73;;;16.70;99.90;;;;;;5068154;28;20696;-88
2023/08/23 02:27:04;;;;;;;12.53;5.67;;;16.70;99.90;;;;;;5035665;28;20187;-89
2023/08/23 02:29:29;;;;;;;16.27;8.07;;;16.80;99.90;;;;;;5068988;28;20659;-88
2023/08/23 02:31:55;;;;;;;12.43;6.30;;;16.80;99.90;;;;;;5069359;28;20225;-87
2023/08/23 02:34:21;;;;;;;14.43;6.37;;;16.90;99.90;;;;;;5069111;28;20260;-88
2023/08/23 02:36:47;;;;;;;12.93;6.07;;;16.90;99.90;;;;;;5034388;28;20268;-87
2023/08/23 02:39:12;;;;;;;8.83;5.23;;;17.00;99.90;;;;;;5069904;28;20178;-88
2023/08/23 02:41:38;;;;;;;11.60;6.57;;;17.00;99.90;;;;;;5034450;28;20259;-88
2023/08/23 02:44:04;;;;;;;11.77;6.60;;;17.00;99.90;;;;;;5069077;28;20296;-87
2023/08/23 02:46:29;;;;;;;10.33;6.47;;;17.10;99.90;;;;;;5068164;28;20296;-87
2023/08/23 02:48:55;;;;;;;9.03;6.17;;;17.10;99.90;;;;;;5069124;28;20306;-87
2023/08/23 02:51:21;;;;;;;16.50;6.93;;;17.20;99.90;;;;;;5051269;28;20184;-88
2023/08/23 02:53:46;;;;;;;10.00;5.93;;;17.20;99.90;;;;;;5069838;28;20595;-88
2023/08/23 02:56:12;;;;;;;11.17;5.60;;;17.30;99.90;;;;;;5068663;28;20236;-89
2023/08/23 02:58:38;;;;;;;12.17;6.17;;;17.20;99.90;;;;;;5034099;28;20229;-88
2023/08/23 03:01:04;;;;;;;12.50;7.27;;;17.20;99.90;;;;;;5034161;28;20389;-87
2023/08/23 03:03:29;;;;;;;11.77;6.50;;;17.20;99.90;;;;;;5050770;28;20235;-88
2023/08/23 03:05:57;;;;;;;9.10;5.83;;;17.00;99.90;;;;;;5034757;28;20254;-87
2023/08/23 03:08:24;;;;;;;11.87;5.97;;;17.00;99.90;;;;;;5067957;28;20205;-88
2023/08/23 03:10:50;;;;;;;12.00;6.03;;;16.90;99.90;;;;;;5068421;28;20308;-89
2023/08/23 03:13:16;;;;;;;6.47;5.23;;;16.90;99.90;;;;;;5033843;28;20282;-87
2023/08/23 03:15:42;;;;;;;11.27;6.50;;;16.90;99.90;;;;;;5033808;28;20209;-86
2023/08/23 03:18:07;;;;;;;9.63;5.83;;;16.80;99.90;;;;;;5068640;28;20181;-86
2023/08/23 03:20:33;;;;;;;13.43;5.37;;;16.80;99.90;;;;;;5067918;28;20216;-86
2023/08/23 03:22:59;;;;;;;9.00;4.83;;;16.70;99.90;;;;;;5067888;28;20764;-86
2023/08/23 03:25:25;;;;;;;10.37;5.07;;;16.70;99.90;;;;;;5033415;28;20787;-88
2023/08/23 03:27:54;;;;;;;10.27;6.53;;;16.80;99.90;;;;;;5068275;28;20220;-87
2023/08/23 03:30:20;;;;;;;11.00;6.17;;;16.80;99.90;;;;;;5067869;28;20211;-88
2023/08/23 03:32:47;;;;;;;11.50;6.47;;;16.90;99.90;;;;;;5050831;28;20417;-87
2023/08/23 03:35:13;;;;;;;15.10;7.60;;;17.00;99.90;;;;;;5068187;28;20377;-88
2023/08/23 03:37:39;;;;;;;10.53;6.50;;;17.00;99.90;;;;;;5067950;28;20286;-87
2023/08/23 03:40:05;;;;;;;11.20;7.30;;;17.00;99.90;;;;;;5050130;28;20674;-88
2023/08/23 03:42:31;;;;;;;11.30;7.57;;;17.00;99.90;;;;;;5067590;28;20757;-87
2023/08/23 03:44:56;;;;;;;11.03;5.80;;;16.90;99.90;;;;;;5050630;28;20264;-88
2023/08/23 03:47:22;;;;;;;10.13;5.23;;;16.80;99.90;;;;;;5033001;28;20243;-86
2023/08/23 03:49:48;;;;;;;6.63;5.40;;;16.50;99.90;;;;;;5033312;28;20244;-89
2023/08/23 03:52:14;;;;;;;9.77;5.50;;;16.30;99.90;;;;;;5049878;28;20209;-86
2023/08/23 03:54:40;;;;;;;7.73;5.10;;;16.20;99.90;;;;;;5049898;28;20213;-87
2023/08/23 03:57:06;;;;;;;15.60;6.20;;;16.10;99.90;;;;;;5050312;28;20229;-87
2023/08/23 03:59:32;;;;;;;8.43;5.43;;;16.20;99.90;;;;;;5049690;28;20217;-86
2023/08/23 04:01:57;;;;;;;11.63;5.50;;;16.40;99.90;;;;;;5049957;28;20252;-88
2023/08/23 04:04:23;;;;;;;13.97;7.50;;;16.60;99.90;;;;;;5049459;28;20281;-89
2023/08/23 04:06:49;;;;;;;11.93;6.13;;;16.60;99.90;;;;;;5067786;28;20223;-90
2023/08/23 04:09:15;;;;;;;13.93;6.53;;;16.70;99.90;;;;;;5068066;28;20205;-87
2023/08/23 04:11:41;;;;;;;9.57;6.70;;;16.70;99.90;;;;;;5049576;28;20810;-87
2023/08/23 04:14:06;;;;;;;10.07;6.20;;;16.70;99.90;;;;;;5049749;28;20213;-88
2023/08/23 04:16:32;;;;;;;12.03;7.87;;;16.70;99.90;;;;;;5049200;28;20217;-88
2023/08/23 04:18:58;;;;;;;12.20;8.43;;;16.70;99.90;;;;;;5033289;28;20221;-87
2023/08/23 04:21:27;;;;;;;12.87;7.07;;;16.70;99.90;;;;;;5052448;28;20169;-87
2023/08/23 04:23:53;;;;;;;11.40;6.43;;;16.80;99.90;;;;;;5071721;28;20188;-87
2023/08/23 04:26:19;;;;;;;12.13;6.93;;;16.80;99.90;;;;;;5052915;28;20295;-88
2023/08/23 04:28:46;;;;;;;21.03;8.57;;;16.80;99.90;;;;;;5053532;28;20770;-87
2023/08/23 04:31:12;;;;;;;15.30;7.33;;;16.80;99.90;;;;;;5071204;28;20235;-88
2023/08/23 04:33:38;;;;;;;12.80;8.53;;;16.80;99.90;;;;;;5036881;28;20317;-88
2023/08/23 04:36:04;;;;;;;16.17;8.20;;;16.80;99.90;;;;;;5053982;28;20597;-89
2023/08/23 04:38:30;;;;;;;12.93;7.40;;;16.80;99.90;;;;;;5036615;28;20308;-87
2023/08/23 04:41:03;;;;;;;14.00;7.20;;;16.80;99.90;;;;;;5053313;28;20224;-88
2023/08/23 04:43:29;;;;;;;13.63;5.60;;;16.80;99.90;;;;;;5071520;28;20290;-88
2023/08/23 04:45:55;;;;;;;17.13;10.27;;;16.80;99.90;;;;;;5053610;28;20658;-87
2023/08/23 04:48:23;;;;;;;16.37;8.13;;;16.80;99.90;;;;;;5053581;28;20259;-87
2023/08/23 04:50:56;;;;;;;12.23;6.10;;;16.80;99.90;;;;;;5053995;28;20181;-88
2023/08/23 04:53:25;;;;;;;12.00;7.93;;;16.80;99.90;;;;;;5070622;28;20292;-88
2023/08/23 04:55:57;;;;;;;14.33;7.47;;;16.90;99.90;;;;;;5053807;28;20217;-88
2023/08/23 04:58:27;;;;;;;15.00;6.67;;;16.80;99.90;;;;;;5071090;28;20219;-88
2023/08/23 05:00:54;;;;;;;18.37;8.50;;;16.80;99.90;;;;;;5070981;28;20217;-87
2023/08/23 05:03:20;;;;;;;16.20;8.53;;;16.90;99.90;;;;;;5070535;28;20318;-88
2023/08/23 05:05:46;;;;;;;18.63;8.53;;;16.80;99.90;;;;;;5036801;28;20181;-88
2023/08/23 05:08:12;;;;;;;13.77;7.03;;;16.80;99.90;;;;;;5070218;28;20300;-86
2023/08/23 05:10:38;;;;;;;21.87;8.43;;;16.80;99.90;;;;;;5070347;28;20231;-88
2023/08/23 05:13:05;;;;;;;14.13;8.40;;;16.90;99.90;;;;;;5071104;28;20220;-87
2023/08/23 05:15:30;;;;;;;19.13;9.27;;;16.90;99.90;;;;;;5052534;28;20180;-88
2023/08/23 05:17:58;;;;;;;17.27;8.80;;;17.00;99.90;;;;;;5070481;28;20181;-88
2023/08/23 05:20:24;;;;;;;19.73;10.87;;;17.20;99.90;;;;;;5070029;28;20308;-86
2023/08/23 05:22:49;;;;;;;28.63;11.73;;;17.30;99.90;;;;;;5052640;28;20303;-89
2023/08/23 05:25:16;;;;;;;22.90;11.70;;;17.40;99.90;;;;;;5052475;28;20232;-86
2023/08/23 05:27:41;;;;;;;17.83;11.53;;;17.60;99.90;;;;;;5052756;28;20209;-87
2023/08/23 05:30:08;;;;;;;29.87;12.43;;;17.70;99.90;;;;;;5053296;28;20538;-86
2023/08/23 05:32:34;;;;;;;28.07;13.27;;;17.90;99.90;;;;;;5069703;28;20568;-87
2023/08/23 05:35:00;;;;;;;23.43;10.33;;;17.90;99.90;;;;;;5036204;28;20655;-86
2023/08/23 05:37:26;;;;;;;31.33;13.07;;;18.20;99.90;;;;;;5052109;28;20217;-87
2023/08/23 05:39:51;;;;;;;27.13;13.13;;;18.10;99.90;;;;;;5070214;28;20228;-88
2023/08/23 05:42:18;;;;;;;28.10;13.07;;;18.20;99.90;;;;;;5052269;28;20626;-89
2023/08/23 05:44:44;;;;;;;26.33;13.20;;;18.40;99.90;;;;;;5070714;28;20174;-88
2023/08/23 05:47:10;;;;;;;24.67;11.97;;;18.60;99.90;;;;;;5069874;28;20209;-85
2023/08/23 05:49:35;;;;;;;18.03;11.93;;;18.80;99.90;;;;;;5051968;28;20251;-88
2023/08/23 05:52:01;;;;;;;23.17;12.40;;;19.50;99.90;;;;;;5068853;28;20394;-86
2023/08/23 05:54:27;;;;;;;23.57;13.37;;;20.40;99.90;;;;;;5051497;28;20177;-83
2023/08/23 05:56:53;;;;;;;22.07;13.63;;;21.70;99.90;;;;;;5070249;28;20178;-87
2023/08/23 05:59:18;;;;;;;25.20;11.80;;;23.10;99.90;;;;;;5069364;28;20217;-84
2023/08/23 06:01:44;;;;;;;26.33;12.13;;;24.40;99.90;;;;;;5051338;28;20217;-85
2023/08/23 06:04:10;;;;;;;18.30;9.80;;;26.10;99.90;;;;;;5035517;28;20313;-84
2023/08/23 06:06:36;;;;;;;14.93;9.73;;;27.10;99.90;;;;;;5051581;28;20359;-85
2023/08/23 06:09:01;;;;;;;17.40;9.07;;;28.40;99.90;;;;;;5051714;28;20213;-85
2023/08/23 06:11:27;;;;;;;15.15;9.10;;;29.40;99.90;;;;;;5050107;28;20212;-84
2023/08/23 06:13:55;;;;;;;12.60;8.25;;;30.10;99.90;;;;;;5034193;28;20213;-85
2023/08/23 06:16:21;;;;;;;11.38;8.10;;;30.90;99.90;;;;;;5051276;28;20221;-84
2023/08/23 06:18:47;;;;;;;13.52;6.40;;;30.20;99.90;;;;;;5068367;28;20216;-84
2023/08/23 06:21:12;;;;;;;10.60;7.30;;;28.30;99.90;;;;;;5051640;28;20174;-85
2023/08/23 06:23:43;;;;;;;11.52;6.68;;;27.70;99.90;;;;;;5050636;28;20213;-84
2023/08/23 06:26:09;;;;;;;12.55;6.80;;;27.00;99.90;;;;;;5052020;28;20237;-84
2023/08/23 06:28:35;;;;;;;11.55;6.78;;;26.30;99.90;;;;;;5069121;28;20414;-86
2023/08/23 06:31:04;;;;;;;11.60;7.18;;;27.00;99.90;;;;;;5069974;28;20763;-90
2023/08/23 06:33:30;;;;;;;11.88;6.38;;;28.10;99.90;;;;;;5061020;28;20684;-90
2023/08/23 06:35:55;;;;;;;11.32;6.75;;;27.50;99.90;;;;;;5084727;28;20169;-89
2023/08/23 06:38:21;;;;;;;10.77;6.88;;;27.40;99.90;;;;;;5035767;28;20561;-89
2023/08/23 06:40:47;;;;;;;10.40;5.70;;;27.90;99.90;;;;;;5052239;28;20209;-88
2023/08/23 06:43:19;;;;;;;11.60;6.80;;;27.10;99.90;;;;;;5069882;28;20217;-90
2023/08/23 06:45:45;;;;;;;10.68;6.53;;;26.30;99.90;;;;;;5051851;28;20447;-90
2023/08/23 06:48:14;;;;;;;10.52;6.68;;;26.00;99.90;;;;;;5053207;28;20215;-88
2023/08/23 06:50:40;;;;;;;13.50;7.43;;;25.20;99.90;;;;;;5069242;28;20221;-90
2023/08/23 06:53:06;;;;;;;11.15;6.22;;;24.50;99.90;;;;;;5069673;28;20694;-88
2023/08/23 06:55:39;;;;;;;12.38;6.20;;;24.30;99.90;;;;;;5051818;28;20401;-90
2023/08/23 06:58:05;;;;;;;11.45;7.15;;;24.90;99.90;;;;;;5069724;28;20217;-89
2023/08/23 07:00:31;;;;;;;11.25;7.57;;;25.60;99.90;;;;;;5069167;28;20173;-92
2023/08/23 07:02:56;;;;;;;12.48;7.28;;;27.60;99.90;;;;;;5043756;28;20263;-90
2023/08/23 07:05:22;;;;;;;17.73;7.18;;;29.50;99.90;;;;;;5068868;28;20217;-93
2023/08/23 07:07:48;;;;;;;13.95;6.80;;;30.40;99.90;;;;;;5051323;28;20213;-92
2023/08/23 07:10:14;;;;;;;9.10;5.53;;;31.30;99.90;;;;;;5068869;28;20221;-89
2023/08/23 07:12:40;;;;;;;12.27;7.03;;;30.70;99.90;;;;;;5051475;28;20291;-92
2023/08/23 07:15:06;;;;;;;15.43;6.53;;;29.50;99.90;;;;;;5055129;28;20311;-89
2023/08/23 07:17:34;;;;;;;10.60;6.60;;;27.70;99.90;;;;;;5070189;28;20216;-88
2023/08/23 07:20:00;;;;;;;14.02;6.13;;;27.30;99.90;;;;;;5052203;28;20228;-92
2023/08/23 07:22:26;;;;;;;12.32;6.53;;;27.90;99.90;;;;;;5053554;28;20248;-89
2023/08/23 07:24:51;;;;;;;9.60;6.28;;;29.20;99.90;;;;;;5035295;28;20221;-89
2023/08/23 07:27:17;;;;;;;12.85;6.10;;;31.10;99.90;;;;;;5034121;28;20258;-89
2023/08/23 07:29:43;;;;;;;7.88;5.57;;;32.70;99.90;;;;;;5034477;28;20201;-92
2023/08/23 07:32:09;;;;;;;13.43;6.38;;;32.90;99.90;;;;;;5051011;28;20690;-87
2023/08/23 07:34:35;;;;;;;10.75;6.07;;;32.20;99.90;;;;;;5067049;28;20294;-89
2023/08/23 07:37:01;;;;;;;10.05;5.70;;;32.50;99.90;;;;;;5067312;28;20441;-86
2023/08/23 07:39:27;;;;;;;14.10;6.10;;;32.30;99.90;;;;;;5067833;28;20187;-93
2023/08/23 07:41:54;;;;;;;9.82;5.85;;;33.30;99.90;;;;;;5069562;28;20634;-88
2023/08/23 07:44:20;;;;;;;7.45;4.63;;;33.90;99.90;;;;;;5068233;28;20213;-90
2023/08/23 07:46:46;;;;;;;8.20;5.10;;;33.80;99.90;;;;;;5067776;28;20762;-87
2023/08/23 07:49:14;;;;;;;8.35;4.93;;;34.30;99.90;;;;;;5067382;28;20308;-88
2023/08/23 07:51:40;;;;;;;7.60;4.13;;;34.70;99.90;;;;;;5068303;28;20216;-91
2023/08/23 07:54:07;;;;;;;9.73;4.47;;;35.20;99.90;;;;;;5067026;28;20384;-86
2023/08/23 07:56:33;;;;;;;10.45;4.38;;;36.00;99.90;;;;;;5065729;28;20213;-90
2023/08/23 07:58:59;;;;;;;8.35;4.00;;;35.70;99.90;;;;;;5049886;28;20478;-89
2023/08/23 08:01:25;;;;;;;8.48;4.60;;;35.30;99.90;;;;;;5069750;28;20204;-86
2023/08/23 08:03:51;;;;;;;5.63;4.22;;;34.40;99.90;;;;;;5087953;28;20227;-93
2023/08/23 08:06:17;;;;;;;9.23;4.22;;;34.10;99.90;;;;;;5088199;28;20800;-87
2023/08/23 08:08:43;;;;;;;6.57;4.40;;;34.70;99.90;;;;;;5088085;28;20175;-91
2023/08/23 08:11:12;;;;;;;7.50;4.07;;;35.40;99.90;;;;;;5070500;28;20212;-90
2023/08/23 08:13:38;;;;;;;8.77;4.30;;;34.20;99.90;;;;;;5087909;28;20248;-90
2023/08/23 08:16:09;;;;;;;6.72;4.38;;;32.30;99.90;;;;;;5088077;28;20216;-92
2023/08/23 08:18:35;;;;;;;7.30;4.32;;;32.10;99.90;;;;;;5087782;28;20180;-89
2023/08/23 08:21:01;;;;;;;7.75;3.83;;;32.90;99.90;;;;;;5054098;28;20168;-89
2023/08/23 08:23:28;;;;;;;8.27;4.40;;;33.10;99.90;;;;;;5088039;28;20213;-91
2023/08/23 08:25:54;;;;;;;8.88;4.25;;;33.00;99.90;;;;;;5087583;28;20213;-85
2023/08/23 08:28:19;;;;;;;5.07;3.70;;;31.90;99.90;;;;;;5087944;28;20257;-92
2023/08/23 08:30:46;;;;;;;5.10;3.90;;;30.30;99.90;;;;;;5070692;28;20303;-85
2023/08/23 08:33:11;;;;;;;9.20;4.82;;;30.20;99.90;;;;;;5071873;28;20172;-88
2023/08/23 08:35:37;;;;;;;6.60;4.20;;;29.70;99.90;;;;;;5070174;28;20212;-91
2023/08/23 08:38:03;;;;;;;8.88;4.70;;;29.50;99.90;;;;;;5071653;28;20223;-94
2023/08/23 08:40:29;;;;;;;8.15;4.43;;;29.40;99.90;;;;;;5089187;28;20287;-91
2023/08/23 08:42:55;;;;;;;6.10;4.35;;;29.70;99.90;;;;;;5088316;28;20208;-95
2023/08/23 08:45:21;;;;;;;7.32;4.10;;;30.50;99.90;;;;;;5088134;28;20600;-89
2023/08/23 08:47:48;;;;;;;7.65;3.97;;;31.30;99.90;;;;;;5088722;28;20173;-92
2023/08/23 08:50:14;;;;;;;7.68;3.95;;;32.10;99.90;;;;;;5070598;28;20743;-91
2023/08/23 08:52:43;;;;;;;6.20;3.03;;;33.10;99.90;;;;;;5070195;28;20217;-95
2023/08/23 08:55:10;;;;;;;7.22;3.10;;;34.00;99.90;;;;;;5053506;28;20668;-93
2023/08/23 08:57:37;;;;;;;4.93;3.10;;;34.90;99.90;;;;;;5070024;28;20213;-87
2023/08/23 09:00:04;;;;;;;6.07;3.25;;;34.60;99.90;;;;;;5070689;28;20177;-92
2023/08/23 09:02:32;;;;;;;4.53;2.88;;;35.10;99.90;;;;;;5069731;28;20271;-89
2023/08/23 09:04:59;;;;;;;7.95;2.63;;;36.20;99.90;;;;;;5069771;28;20217;-88
2023/08/23 09:07:25;;;;;;;2.22;2.00;;;36.80;99.90;;;;;;5072370;28;20689;-86
2023/08/23 09:09:51;;;;;;;4.70;2.38;;;36.00;99.90;;;;;;5073689;28;20244;-87
2023/08/23 09:12:16;;;;;;;4.95;1.80;;;35.40;99.90;;;;;;5073738;28;20271;-88
2023/08/23 09:14:49;;;;;;;2.00;1.80;;;35.00;99.90;;;;;;5036232;28;20209;-88
2023/08/23 09:17:15;;;;;;;4.57;1.95;;;34.20;99.90;;;;;;5087195;28;20209;-89
2023/08/23 09:19:41;;;;;;;5.18;2.42;;;32.40;99.90;;;;;;5071000;28;20871;-89
2023/08/23 09:22:07;;;;;;;2.35;2.00;;;30.00;99.90;;;;;;5053151;28;20213;-91
2023/08/23 09:24:33;;;;;;;6.00;2.28;;;28.10;99.90;;;;;;5052908;28;20639;-89
2023/08/23 09:26:59;;;;;;;8.32;2.92;;;26.90;99.90;;;;;;5071538;28;20598;-88
2023/08/23 09:29:25;;;;;;;7.15;2.78;;;26.00;99.90;;;;;;5052978;28;20425;-84
2023/08/23 09:31:51;;;;;;;3.95;2.40;;;25.30;99.90;;;;;;5053182;28;20698;-86
2023/08/23 09:34:17;;;;;;;7.55;2.80;;;24.90;99.90;;;;;;5052854;28;20304;-86
2023/08/23 09:36:43;;;;;;;3.95;2.38;;;24.80;99.90;;;;;;5036329;28;20209;-87
2023/08/23 09:39:10;;;;;;;5.35;2.85;;;24.80;99.90;;;;;;5071078;28;20201;-88
2023/08/23 09:41:41;;;;;;;9.43;2.70;;;25.30;99.90;;;;;;5070529;28;20209;-84
2023/08/23 09:44:08;;;;;;;4.68;2.28;;;25.50;99.90;;;;;;5052791;28;20227;-85
2023/08/23 09:46:36;;;;;;;5.60;2.53;;;25.50;99.90;;;;;;5053313;28;20599;-91
2023/08/23 09:49:06;;;;;;;2.38;2.17;;;25.60;99.90;;;;;;5036106;28;20227;-91
2023/08/23 09:51:36;;;;;;;4.45;1.98;;;25.10;99.90;;;;;;5070321;28;20185;-86
2023/08/23 09:54:25;;;;;;;3.75;2.10;;;25.20;99.90;;;;;;5053732;28;20181;-91
2023/08/23 09:56:51;;;;;;;2.10;1.75;;;25.80;99.90;;;;;;5072796;28;20219;-88
2023/08/23 09:59:18;;;;;;;5.60;1.98;;;27.30;99.90;;;;;;5072842;28;20208;-87
2023/08/23 10:01:44;;;;;;;3.00;1.33;;;27.10;99.90;;;;;;5090271;28;20208;-85
2023/08/23 10:04:11;;;;;;;2.53;1.42;;;27.40;99.90;;;;;;5090125;28;20370;-84
2023/08/23 10:06:37;;;;;;;2.30;1.88;;;28.00;99.90;;;;;;5072081;28;21188;-91
2023/08/23 10:09:03;;;;;;;3.63;1.35;;;28.50;99.90;;;;;;5090447;28;20687;-86
2023/08/23 10:11:33;;;;;;;2.97;1.42;;;29.10;99.90;;;;;;5072320;28;20224;-87
2023/08/23 10:14:00;;;;;;;1.40;1.13;;;29.70;99.90;;;;;;5072170;28;20212;-90
2023/08/23 10:16:26;;;;;;;3.60;1.52;;;30.50;99.90;;;;;;5071738;28;20364;-87
2023/08/23 10:18:53;;;;;;;1.98;1.20;;;31.00;99.90;;;;;;5070901;28;20805;-85
2023/08/23 10:21:19;;;;;;;1.27;1.17;;;31.70;99.90;;;;;;5072168;28;20169;-86
2023/08/23 10:23:45;;;;;;;3.95;1.30;;;32.40;99.90;;;;;;5072934;28;20173;-89
2023/08/23 10:26:19;;;;;;;2.85;1.08;;;33.00;99.90;;;;;;5071836;28;20247;-89
2023/08/23 10:28:53;;;;;;;4.72;1.58;;;32.10;99.90;;;;;;5071922;28;20238;-89
2023/08/23 10:31:37;;;;;;;2.67;1.35;;;32.00;99.90;;;;;;5055013;28;20838;-89
2023/08/23 10:34:03;;;;;;;3.28;1.35;;;32.30;99.90;;;;;;5055087;28;20204;-90
2023/08/23 10:36:30;;;;;;;2.22;1.67;;;31.10;99.90;;;;;;5089370;28;20202;-86
2023/08/23 10:38:59;;;;;;;3.30;1.45;;;30.10;99.90;;;;;;5090452;28;20172;-88
2023/08/23 10:41:26;;;;;;;3.72;1.02;;;29.70;99.90;;;;;;5089547;28;20235;-88
2023/08/23 10:43:53;;;;;;;1.15;0.88;;;29.80;99.90;;;;;;5071409;28;20738;-89
2023/08/23 10:46:21;;;;;;;1.73;1.02;;;29.40;99.90;;;;;;5089616;28;20224;-90
2023/08/23 10:48:48;;;;;;;6.88;1.50;;;28.50;99.90;;;;;;5089003;28;20241;-87
2023/08/23 10:51:16;;;;;;;1.20;1.00;;;28.10;99.90;;;;;;5089928;28;20267;-88
2023/08/23 10:53:42;;;;;;;2.28;1.52;;;28.00;99.90;;;;;;5071530;28;20813;-86
2023/08/23 10:56:10;;;;;;;2.75;1.60;;;26.90;99.90;;;;;;5071859;28;20228;-93
2023/08/23 10:58:36;;;;;;;5.47;1.73;;;26.10;99.90;;;;;;5071109;28;20236;-87
2023/08/23 11:01:03;;;;;;;1.73;1.60;;;25.40;99.90;;;;;;5071807;28;20666;-91
2023/08/23 11:03:29;;;;;;;5.78;1.42;;;25.00;99.90;;;;;;5055282;28;20308;-87
2023/08/23 11:05:58;;;;;;;5.90;1.83;;;24.40;99.90;;;;;;5049622;28;20627;-86
2023/08/23 11:08:24;;;;;;;4.00;2.15;;;24.60;99.90;;;;;;5031767;28;20216;-90
2023/08/23 11:10:50;;;;;;;3.97;1.67;;;24.30;99.90;;;;;;5030786;28;20297;-89
2023/08/23 11:13:15;;;;;;;2.20;1.40;;;24.10;99.90;;;;;;5015247;28;20209;-89
2023/08/23 11:15:43;;;;;;;2.50;1.40;;;25.30;99.90;;;;;;5049070;28;20213;-90
2023/08/23 11:18:10;;;;;;;1.65;1.10;;;26.10;99.90;;;;;;5049844;28;20186;-83
2023/08/23 11:20:36;;;;;;;1.48;1.30;;;25.90;99.90;;;;;;5031829;28;20218;-89
2023/08/23 11:23:02;;;;;;;2.58;1.38;;;25.10;99.90;;;;;;5049301;28;20289;-89
2023/08/23 11:25:28;;;;;;;1.98;1.42;;;24.80;99.90;;;;;;5031784;28;20358;-90
2023/08/23 11:27:54;;;;;;;5.55;1.77;;;24.60;99.90;;;;;;5049438;28;20651;-89
2023/08/23 11:30:23;;;;;;;3.15;1.63;;;25.00;99.90;;;;;;5031475;28;20213;-88
2023/08/23 11:32:48;;;;;;;3.25;1.58;;;25.40;99.90;;;;;;5052900;28;20281;-88
2023/08/23 11:35:17;;;;;;;1.70;1.55;;;26.00;99.90;;;;;;5058188;28;20217;-84
2023/08/23 11:37:42;;;;;;;3.33;1.90;;;26.70;99.90;;;;;;5060023;28;20632;-86
2023/08/23 11:40:10;;;;;;;2.50;1.58;;;27.40;99.90;;;;;;5056137;28;20214;-83
2023/08/23 11:42:37;;;;;;;4.15;1.48;;;27.60;99.90;;;;;;5035867;28;20392;-87
2023/08/23 11:45:04;;;;;;;1.17;1.02;;;27.80;99.90;;;;;;5037340;28;20654;-92
2023/08/23 11:47:30;;;;;;;4.07;1.85;;;27.90;99.90;;;;;;5052170;28;20225;-89
2023/08/23 11:49:56;;;;;;;4.57;2.70;;;28.00;99.90;;;;;;5048992;28;20217;-89
2023/08/23 11:52:22;;;;;;;2.22;1.77;;;26.60;99.90;;;;;;5048463;28;20282;-89
2023/08/23 11:54:52;;;;;;;4.32;2.85;;;25.50;99.90;;;;;;5031355;28;20293;-89
2023/08/23 11:57:18;;;;;;;2.78;1.80;;;24.80;99.90;;;;;;5030971;28;20180;-86
2023/08/23 11:59:44;;;;;;;7.22;2.58;;;24.40;99.90;;;;;;5014547;28;20623;-86
2023/08/23 12:02:10;;;;;;;4.60;2.83;;;24.10;99.90;;;;;;5030591;28;20206;-83
2023/08/23 12:04:42;;;;;;;3.42;2.78;;;24.30;99.90;;;;;;5060897;28;20573;-86
2023/08/23 12:07:09;;;;;;;4.05;1.88;;;24.50;99.90;;;;;;5068571;28;20241;-85
2023/08/23 12:09:35;;;;;;;2.50;2.28;;;24.80;99.90;;;;;;5049948;28;20284;-85
2023/08/23 12:12:02;;;;;;;5.13;2.50;;;25.10;99.90;;;;;;5068787;28;20169;-86
2023/08/23 12:14:29;;;;;;;3.45;2.85;;;25.30;99.90;;;;;;5068355;28;20244;-85
2023/08/23 12:16:55;;;;;;;1.80;1.70;;;25.50;99.90;;;;;;5068109;28;20670;-85
2023/08/23 12:19:21;;;;;;;5.70;2.63;;;25.60;99.90;;;;;;5068501;28;20221;-86
2023/08/23 12:21:48;;;;;;;4.38;2.45;;;25.40;99.90;;;;;;5049371;28;20750;-83
2023/08/23 12:24:14;;;;;;;3.30;2.03;;;25.30;99.90;;;;;;5067998;28;20686;-86
2023/08/23 12:26:39;;;;;;;3.53;2.20;;;25.10;99.90;;;;;;5049729;28;20292;-85
2023/08/23 12:29:05;;;;;;;2.67;1.90;;;24.60;99.90;;;;;;5049893;28;20233;-86
2023/08/23 12:31:31;;;;;;;3.45;2.40;;;24.30;99.90;;;;;;5067822;28;20213;-87
2023/08/23 12:33:57;;;;;;;5.75;2.33;;;24.20;99.90;;;;;;5033598;28;20217;-86
2023/08/23 12:36:24;;;;;;;6.15;2.35;;;24.30;99.90;;;;;;5049893;28;20173;-87
2023/08/23 12:38:50;;;;;;;4.75;2.78;;;24.10;99.90;;;;;;5050857;28;20323;-85